sensor_id;sensor_type;location;lat;lon;timestamp;pressure;altitude;pressure_sealevel;temperature;humidity
71107;BME280;58763;47.982;11.516;2023-08-20T00:00:13;94547.84;;;23.98;51.72
71107;BME280;58763;47.982;11.516;2023-08-20T00:02:42;94545.06;;;23.98;51.95
71107;BME280;58763;47.982;11.516;2023-08-20T00:05:08;94541.50;;;23.98;51.75
71107;BME280;58763;47.982;11.516;2023-08-20T00:07:34;94546.66;;;23.99;51.42
71107;BME280;58763;47.982;11.516;2023-08-20T00:10:00;94549.78;;;23.98;51.42
71107;BME280;58763;47.982;11.516;2023-08-20T00:12:25;94544.91;;;23.91;51.93
71107;BME280;58763;47.982;11.516;2023-08-20T00:14:53;94543.28;;;23.90;51.88
71107;BME280;58763;47.982;11.516;2023-08-20T00:17:20;94551.94;;;23.89;52.00
71107;BME280;58763;47.982;11.516;2023-08-20T00:19:45;94543.06;;;23.80;52.44
71107;BME280;58763;47.982;11.516;2023-08-20T00:22:11;94554.47;;;23.78;51.90
71107;BME280;58763;47.982;11.516;2023-08-20T00:24:37;94548.31;;;23.69;52.58
71107;BME280;58763;47.982;11.516;2023-08-20T00:27:02;94541.06;;;23.61;52.72
71107;BME280;58763;47.982;11.516;2023-08-20T00:29:28;94554.16;;;23.49;53.11
71107;BME280;58763;47.982;11.516;2023-08-20T00:31:53;94549.50;;;23.53;53.09
71107;BME280;58763;47.982;11.516;2023-08-20T00:34:18;94536.78;;;23.48;52.92
71107;BME280;58763;47.982;11.516;2023-08-20T00:36:44;94547.22;;;23.39;52.98
71107;BME280;58763;47.982;11.516;2023-08-20T00:39:09;94551.66;;;23.44;52.64
71107;BME280;58763;47.982;11.516;2023-08-20T00:41:35;94549.41;;;23.33;53.11
71107;BME280;58763;47.982;11.516;2023-08-20T00:44:00;94543.56;;;23.35;53.13
71107;BME280;58763;47.982;11.516;2023-08-20T00:46:25;94556.78;;;23.29;53.06
71107;BME280;58763;47.982;11.516;2023-08-20T00:48:51;94560.19;;;23.23;53.10
71107;BME280;58763;47.982;11.516;2023-08-20T00:51:17;94558.59;;;23.22;53.16
71107;BME280;58763;47.982;11.516;2023-08-20T00:53:42;94550.22;;;23.18;53.16
71107;BME280;58763;47.982;11.516;2023-08-20T00:56:10;94559.75;;;23.21;53.16
71107;BME280;58763;47.982;11.516;2023-08-20T00:58:35;94550.22;;;23.18;53.16
71107;BME280;58763;47.982;11.516;2023-08-20T01:01:01;94558.13;;;23.20;53.12
71107;BME280;58763;47.982;11.516;2023-08-20T01:03:26;94553.50;;;23.24;53.24
71107;BME280;58763;47.982;11.516;2023-08-20T01:06:02;94550.31;;;23.22;53.37
71107;BME280;58763;47.982;11.516;2023-08-20T01:08:40;94558.94;;;23.20;53.23
71107;BME280;58763;47.982;11.516;2023-08-20T01:11:15;94551.72;;;23.16;53.07
71107;BME280;58763;47.982;11.516;2023-08-20T01:13:41;94546.66;;;23.18;53.14
71107;BME280;58763;47.982;11.516;2023-08-20T01:16:07;94554.47;;;23.16;53.28
71107;BME280;58763;47.982;11.516;2023-08-20T01:18:32;94536.78;;;23.17;53.24
71107;BME280;58763;47.982;11.516;2023-08-20T01:21:02;94546.84;;;23.09;53.46
71107;BME280;58763;47.982;11.516;2023-08-20T01:26:33;94545.94;;;23.05;53.45
71107;BME280;58763;47.982;11.516;2023-08-20T01:29:06;94549.41;;;23.02;53.31
71107;BME280;58763;47.982;11.516;2023-08-20T01:31:32;94562.13;;;23.07;53.47
71107;BME280;58763;47.982;11.516;2023-08-20T01:33:58;94561.16;;;23.15;53.58
71107;BME280;58763;47.982;11.516;2023-08-20T01:36:24;94560.44;;;23.18;53.51
71107;BME280;58763;47.982;11.516;2023-08-20T01:38:49;94554.41;;;23.12;53.99
71107;BME280;58763;47.982;11.516;2023-08-20T01:41:16;94557.75;;;23.06;53.97
71107;BME280;58763;47.982;11.516;2023-08-20T01:43:42;94552.16;;;23.02;53.93
71107;BME280;58763;47.982;11.516;2023-08-20T01:46:07;94557.56;;;22.99;53.70
71107;BME280;58763;47.982;11.516;2023-08-20T01:48:34;94567.97;;;22.90;53.65
71107;BME280;58763;47.982;11.516;2023-08-20T01:51:00;94573.41;;;22.86;53.85
71107;BME280;58763;47.982;11.516;2023-08-20T01:53:25;94568.25;;;22.85;53.96
71107;BME280;58763;47.982;11.516;2023-08-20T01:55:51;94566.53;;;22.80;54.10
71107;BME280;58763;47.982;11.516;2023-08-20T01:58:16;94564.81;;;22.76;54.14
71107;BME280;58763;47.982;11.516;2023-08-20T02:00:42;94564.38;;;22.74;54.16
71107;BME280;58763;47.982;11.516;2023-08-20T02:03:07;94565.31;;;22.78;54.16
71107;BME280;58763;47.982;11.516;2023-08-20T02:05:33;94565.75;;;22.80;54.07
71107;BME280;58763;47.982;11.516;2023-08-20T02:07:58;94563.94;;;22.72;53.66
71107;BME280;58763;47.982;11.516;2023-08-20T02:10:23;94565.34;;;22.65;54.16
71107;BME280;58763;47.982;11.516;2023-08-20T02:12:49;94560.66;;;22.66;54.11
71107;BME280;58763;47.982;11.516;2023-08-20T02:15:15;94567.06;;;22.58;54.00
71107;BME280;58763;47.982;11.516;2023-08-20T02:17:40;94565.00;;;22.55;54.08
71107;BME280;58763;47.982;11.516;2023-08-20T02:20:06;94566.78;;;22.47;54.39
71107;BME280;58763;47.982;11.516;2023-08-20T02:22:37;94558.31;;;22.40;54.34
71107;BME280;58763;47.982;11.516;2023-08-20T02:25:03;94555.09;;;22.38;54.55
71107;BME280;58763;47.982;11.516;2023-08-20T02:27:29;94557.84;;;22.38;54.64
71107;BME280;58763;47.982;11.516;2023-08-20T02:29:54;94562.09;;;22.36;54.54
71107;BME280;58763;47.982;11.516;2023-08-20T02:32:20;94566.03;;;22.35;54.44
71107;BME280;58763;47.982;11.516;2023-08-20T02:34:51;94563.03;;;22.40;54.39
71107;BME280;58763;47.982;11.516;2023-08-20T02:37:17;94576.19;;;22.46;54.50
71107;BME280;58763;47.982;11.516;2023-08-20T02:39:42;94573.13;;;22.36;54.61
71107;BME280;58763;47.982;11.516;2023-08-20T02:42:09;94569.72;;;22.27;54.65
71107;BME280;58763;47.982;11.516;2023-08-20T02:44:34;94567.47;;;22.17;54.86
71107;BME280;58763;47.982;11.516;2023-08-20T02:46:59;94565.66;;;22.09;54.88
71107;BME280;58763;47.982;11.516;2023-08-20T02:49:25;94567.03;;;22.02;54.96
71107;BME280;58763;47.982;11.516;2023-08-20T02:51:50;94568.09;;;21.98;55.01
71107;BME280;58763;47.982;11.516;2023-08-20T02:54:15;94565.56;;;21.93;55.04
71107;BME280;58763;47.982;11.516;2023-08-20T02:56:41;94562.38;;;21.91;54.94
71107;BME280;58763;47.982;11.516;2023-08-20T02:59:06;94561.31;;;21.95;54.75
71107;BME280;58763;47.982;11.516;2023-08-20T03:01:32;94558.81;;;21.90;55.27
71107;BME280;58763;47.982;11.516;2023-08-20T03:03:57;94567.16;;;21.94;55.23
71107;BME280;58763;47.982;11.516;2023-08-20T03:06:23;94564.06;;;21.95;55.05
71107;BME280;58763;47.982;11.516;2023-08-20T03:08:48;94569.22;;;21.97;55.19
71107;BME280;58763;47.982;11.516;2023-08-20T03:11:14;94564.97;;;21.99;54.96
71107;BME280;58763;47.982;11.516;2023-08-20T03:13:39;94568.66;;;21.91;55.05
71107;BME280;58763;47.982;11.516;2023-08-20T03:16:04;94569.38;;;21.88;55.21
71107;BME280;58763;47.982;11.516;2023-08-20T03:18:30;94570.97;;;21.89;55.21
71107;BME280;58763;47.982;11.516;2023-08-20T03:20:55;94572.44;;;21.87;55.39
71107;BME280;58763;47.982;11.516;2023-08-20T03:23:21;94576.47;;;21.89;55.47
71107;BME280;58763;47.982;11.516;2023-08-20T03:25:47;94566.38;;;21.93;55.41
71107;BME280;58763;47.982;11.516;2023-08-20T03:28:12;94569.81;;;21.90;55.49
71107;BME280;58763;47.982;11.516;2023-08-20T03:30:38;94569.13;;;21.81;55.81
71107;BME280;58763;47.982;11.516;2023-08-20T03:33:03;94570.47;;;21.75;56.14
71107;BME280;58763;47.982;11.516;2023-08-20T03:35:29;94579.34;;;21.69;56.23
71107;BME280;58763;47.982;11.516;2023-08-20T03:37:54;94580.50;;;21.68;56.10
71107;BME280;58763;47.982;11.516;2023-08-20T03:40:20;94592.75;;;21.58;56.30
71107;BME280;58763;47.982;11.516;2023-08-20T03:42:45;94577.75;;;21.56;56.16
71107;BME280;58763;47.982;11.516;2023-08-20T03:45:10;94578.56;;;21.44;56.56
71107;BME280;58763;47.982;11.516;2023-08-20T03:47:36;94581.16;;;21.41;56.63
71107;BME280;58763;47.982;11.516;2023-08-20T03:50:02;94587.38;;;21.38;56.78
71107;BME280;58763;47.982;11.516;2023-08-20T03:52:28;94579.22;;;21.41;56.57
71107;BME280;58763;47.982;11.516;2023-08-20T03:54:54;94588.28;;;21.42;56.72
71107;BME280;58763;47.982;11.516;2023-08-20T03:57:19;94594.69;;;21.33;56.82
71107;BME280;58763;47.982;11.516;2023-08-20T03:59:45;94583.22;;;21.31;57.15
71107;BME280;58763;47.982;11.516;2023-08-20T04:02:11;94581.06;;;21.25;57.18
71107;BME280;58763;47.982;11.516;2023-08-20T04:04:36;94585.97;;;21.19;57.49
71107;BME280;58763;47.982;11.516;2023-08-20T04:07:02;94588.16;;;21.14;57.73
71107;BME280;58763;47.982;11.516;2023-08-20T04:09:28;94582.53;;;21.10;57.49
71107;BME280;58763;47.982;11.516;2023-08-20T04:11:54;94584.34;;;21.06;57.67
71107;BME280;58763;47.982;11.516;2023-08-20T04:14:19;94593.53;;;21.10;57.78
71107;BME280;58763;47.982;11.516;2023-08-20T04:16:45;94599.47;;;21.12;57.66
71107;BME280;58763;47.982;11.516;2023-08-20T04:19:11;94599.16;;;21.14;57.65
71107;BME280;58763;47.982;11.516;2023-08-20T04:21:36;94598.69;;;21.12;57.51
71107;BME280;58763;47.982;11.516;2023-08-20T04:24:02;94607.97;;;21.19;57.50
71107;BME280;58763;47.982;11.516;2023-08-20T04:26:27;94601.69;;;21.19;57.32
71107;BME280;58763;47.982;11.516;2023-08-20T04:28:53;94608.06;;;21.11;57.64
71107;BME280;58763;47.982;11.516;2023-08-20T04:31:18;94607.25;;;21.10;57.55
71107;BME280;58763;47.982;11.516;2023-08-20T04:33:45;94603.03;;;21.13;57.74
71107;BME280;58763;47.982;11.516;2023-08-20T04:36:10;94610.25;;;21.17;57.64
71107;BME280;58763;47.982;11.516;2023-08-20T04:38:37;94605.91;;;21.16;57.79
71107;BME280;58763;47.982;11.516;2023-08-20T04:41:02;94610.84;;;21.23;57.61
71107;BME280;58763;47.982;11.516;2023-08-20T04:43:28;94610.19;;;21.26;57.36
71107;BME280;58763;47.982;11.516;2023-08-20T04:45:54;94613.16;;;21.21;57.94
71107;BME280;58763;47.982;11.516;2023-08-20T04:48:19;94618.44;;;21.26;57.80
71107;BME280;58763;47.982;11.516;2023-08-20T04:50:46;94614.72;;;21.22;57.54
71107;BME280;58763;47.982;11.516;2023-08-20T04:53:12;94616.78;;;21.13;57.64
71107;BME280;58763;47.982;11.516;2023-08-20T04:55:38;94612.44;;;21.12;57.87
71107;BME280;58763;47.982;11.516;2023-08-20T04:58:07;94617.47;;;21.10;57.90
71107;BME280;58763;47.982;11.516;2023-08-20T05:00:40;94623.31;;;21.08;57.37
71107;BME280;58763;47.982;11.516;2023-08-20T05:03:05;94629.50;;;21.17;57.94
71107;BME280;58763;47.982;11.516;2023-08-20T05:05:30;94620.03;;;21.27;57.41
71107;BME280;58763;47.982;11.516;2023-08-20T05:07:56;94624.84;;;21.30;57.29
71107;BME280;58763;47.982;11.516;2023-08-20T05:10:21;94621.63;;;21.28;57.50
71107;BME280;58763;47.982;11.516;2023-08-20T05:12:47;94622.66;;;21.23;57.74
71107;BME280;58763;47.982;11.516;2023-08-20T05:15:12;94627.25;;;21.31;57.67
71107;BME280;58763;47.982;11.516;2023-08-20T05:17:37;94625.91;;;21.38;58.01
71107;BME280;58763;47.982;11.516;2023-08-20T05:20:05;94630.59;;;21.37;58.18
71107;BME280;58763;47.982;11.516;2023-08-20T05:22:30;94632.75;;;21.31;58.65
71107;BME280;58763;47.982;11.516;2023-08-20T05:24:56;94631.03;;;21.27;58.65
71107;BME280;58763;47.982;11.516;2023-08-20T05:27:22;94632.75;;;21.31;58.33
71107;BME280;58763;47.982;11.516;2023-08-20T05:29:47;94633.41;;;21.28;58.39
71107;BME280;58763;47.982;11.516;2023-08-20T05:32:13;94632.06;;;21.34;58.09
71107;BME280;58763;47.982;11.516;2023-08-20T05:34:40;94634.38;;;21.32;58.37
71107;BME280;58763;47.982;11.516;2023-08-20T05:37:05;94635.28;;;21.37;58.16
71107;BME280;58763;47.982;11.516;2023-08-20T05:39:37;94629.44;;;21.38;58.48
71107;BME280;58763;47.982;11.516;2023-08-20T05:42:03;94634.72;;;21.43;58.20
71107;BME280;58763;47.982;11.516;2023-08-20T05:44:29;94627.72;;;21.46;58.29
71107;BME280;58763;47.982;11.516;2023-08-20T05:46:54;94627.84;;;21.49;58.22
71107;BME280;58763;47.982;11.516;2023-08-20T05:49:19;94628.41;;;21.55;58.00
71107;BME280;58763;47.982;11.516;2023-08-20T05:51:45;94621.53;;;21.49;58.00
71107;BME280;58763;47.982;11.516;2023-08-20T05:54:10;94630.72;;;21.53;58.11
71107;BME280;58763;47.982;11.516;2023-08-20T05:56:37;94623.94;;;21.50;57.79
71107;BME280;58763;47.982;11.516;2023-08-20T05:59:03;94628.41;;;21.55;57.52
71107;BME280;58763;47.982;11.516;2023-08-20T06:01:28;94618.56;;;21.54;57.19
71107;BME280;58763;47.982;11.516;2023-08-20T06:03:54;94632.88;;;21.59;57.44
71107;BME280;58763;47.982;11.516;2023-08-20T06:06:19;94618.78;;;21.61;57.77
71107;BME280;58763;47.982;11.516;2023-08-20T06:08:44;94620.97;;;21.67;58.01
71107;BME280;58763;47.982;11.516;2023-08-20T06:11:10;94627.03;;;21.73;57.97
71107;BME280;58763;47.982;11.516;2023-08-20T06:13:35;94626.03;;;21.77;57.54
71107;BME280;58763;47.982;11.516;2023-08-20T06:16:01;94630.50;;;21.82;57.25
71107;BME280;58763;47.982;11.516;2023-08-20T06:18:26;94624.53;;;21.92;57.64
71107;BME280;58763;47.982;11.516;2023-08-20T06:20:52;94622.34;;;21.97;58.06
71107;BME280;58763;47.982;11.516;2023-08-20T06:23:17;94633.47;;;22.01;57.99
71107;BME280;58763;47.982;11.516;2023-08-20T06:25:43;94628.19;;;22.08;58.38
71107;BME280;58763;47.982;11.516;2023-08-20T06:28:08;94637.81;;;22.14;57.67
71107;BME280;58763;47.982;11.516;2023-08-20T06:30:35;94640.81;;;22.09;57.03
71107;BME280;58763;47.982;11.516;2023-08-20T06:33:00;94635.66;;;22.08;57.23
71107;BME280;58763;47.982;11.516;2023-08-20T06:35:26;94635.53;;;22.16;57.94
71107;BME280;58763;47.982;11.516;2023-08-20T06:37:52;94635.38;;;22.25;57.73
71107;BME280;58763;47.982;11.516;2023-08-20T06:40:17;94635.28;;;22.33;57.57
71107;BME280;58763;47.982;11.516;2023-08-20T06:42:43;94638.34;;;22.32;57.07
71107;BME280;58763;47.982;11.516;2023-08-20T06:45:09;94645.34;;;22.41;57.22
71107;BME280;58763;47.982;11.516;2023-08-20T06:47:34;94647.81;;;22.58;57.65
71107;BME280;58763;47.982;11.516;2023-08-20T06:50:00;94640.53;;;22.78;56.71
71107;BME280;58763;47.982;11.516;2023-08-20T06:52:25;94651.19;;;22.92;56.14
71107;BME280;58763;47.982;11.516;2023-08-20T06:54:51;94649.69;;;23.10;55.68
71107;BME280;58763;47.982;11.516;2023-08-20T06:57:16;94653.34;;;23.14;55.11
71107;BME280;58763;47.982;11.516;2023-08-20T06:59:42;94649.84;;;23.29;54.45
71107;BME280;58763;47.982;11.516;2023-08-20T07:02:09;94649.78;;;23.57;54.23
71107;BME280;58763;47.982;11.516;2023-08-20T07:04:35;94653.59;;;23.83;54.54
71107;BME280;58763;47.982;11.516;2023-08-20T07:07:00;94643.72;;;24.14;54.09
71107;BME280;58763;47.982;11.516;2023-08-20T07:09:26;94647.50;;;24.40;53.04
71107;BME280;58763;47.982;11.516;2023-08-20T07:11:52;94657.34;;;24.57;51.84
71107;BME280;58763;47.982;11.516;2023-08-20T07:14:17;94659.44;;;24.63;51.86
71107;BME280;58763;47.982;11.516;2023-08-20T07:16:43;94652.78;;;25.03;50.81
71107;BME280;58763;47.982;11.516;2023-08-20T07:19:11;94665.22;;;25.12;50.42
71107;BME280;58763;47.982;11.516;2023-08-20T07:21:36;94668.16;;;25.19;50.14
71107;BME280;58763;47.982;11.516;2023-08-20T07:24:02;94663.97;;;25.29;50.75
71107;BME280;58763;47.982;11.516;2023-08-20T07:26:27;94654.72;;;25.40;49.87
71107;BME280;58763;47.982;11.516;2023-08-20T07:28:53;94660.41;;;25.70;49.77
71107;BME280;58763;47.982;11.516;2023-08-20T07:31:32;94655.47;;;26.05;48.75
71107;BME280;58763;47.982;11.516;2023-08-20T07:34:00;94661.06;;;26.32;47.91
71107;BME280;58763;47.982;11.516;2023-08-20T07:36:26;94666.97;;;26.56;48.16
71107;BME280;58763;47.982;11.516;2023-08-20T07:38:52;94657.47;;;26.84;47.53
71107;BME280;58763;47.982;11.516;2023-08-20T07:41:18;94666.94;;;27.12;47.14
71107;BME280;58763;47.982;11.516;2023-08-20T07:43:45;94667.50;;;27.58;45.92
71107;BME280;58763;47.982;11.516;2023-08-20T07:46:11;94663.84;;;27.91;45.21
71107;BME280;58763;47.982;11.516;2023-08-20T07:48:37;94665.69;;;28.17;44.13
71107;BME280;58763;47.982;11.516;2023-08-20T07:51:03;94665.06;;;28.41;43.84
71107;BME280;58763;47.982;11.516;2023-08-20T07:53:30;94670.66;;;28.48;42.83
71107;BME280;58763;47.982;11.516;2023-08-20T07:55:55;94675.19;;;28.66;43.08
71107;BME280;58763;47.982;11.516;2023-08-20T07:58:21;94675.38;;;28.91;42.65
71107;BME280;58763;47.982;11.516;2023-08-20T08:00:46;94675.03;;;29.10;41.74
71107;BME280;58763;47.982;11.516;2023-08-20T08:03:12;94676.72;;;29.25;41.56
71107;BME280;58763;47.982;11.516;2023-08-20T08:05:40;94672.38;;;29.31;41.07
71107;BME280;58763;47.982;11.516;2023-08-20T08:08:06;94672.44;;;29.49;41.02
71107;BME280;58763;47.982;11.516;2023-08-20T08:10:31;94686.03;;;29.68;42.70
71107;BME280;58763;47.982;11.516;2023-08-20T08:12:56;94679.31;;;29.80;42.19
71107;BME280;58763;47.982;11.516;2023-08-20T08:15:22;94678.16;;;30.05;41.74
71107;BME280;58763;47.982;11.516;2023-08-20T08:17:48;94688.09;;;29.96;40.33
71107;BME280;58763;47.982;11.516;2023-08-20T08:20:13;94689.31;;;30.16;39.46
71107;BME280;58763;47.982;11.516;2023-08-20T08:22:39;94693.34;;;30.33;39.35
71107;BME280;58763;47.982;11.516;2023-08-20T08:25:05;94687.75;;;30.47;39.69
71107;BME280;58763;47.982;11.516;2023-08-20T08:27:30;94691.72;;;30.53;39.67
71107;BME280;58763;47.982;11.516;2023-08-20T08:29:56;94693.72;;;30.63;39.53
71107;BME280;58763;47.982;11.516;2023-08-20T08:32:21;94689.72;;;30.85;39.11
71107;BME280;58763;47.982;11.516;2023-08-20T08:34:47;94679.34;;;30.89;36.89
71107;BME280;58763;47.982;11.516;2023-08-20T08:37:12;94686.50;;;30.87;36.10
71107;BME280;58763;47.982;11.516;2023-08-20T08:39:38;94688.53;;;30.90;34.85
71107;BME280;58763;47.982;11.516;2023-08-20T08:42:04;94687.34;;;30.41;36.24
71107;BME280;58763;47.982;11.516;2023-08-20T08:44:34;94688.94;;;30.63;37.07
71107;BME280;58763;47.982;11.516;2023-08-20T08:47:01;94688.97;;;30.35;36.18
71107;BME280;58763;47.982;11.516;2023-08-20T08:49:27;94686.94;;;30.60;36.30
71107;BME280;58763;47.982;11.516;2023-08-20T08:51:56;94686.13;;;30.77;35.77
71107;BME280;58763;47.982;11.516;2023-08-20T08:54:22;94686.56;;;30.69;33.94
71107;BME280;58763;47.982;11.516;2023-08-20T08:56:47;94683.38;;;30.49;34.25
71107;BME280;58763;47.982;11.516;2023-08-20T08:59:13;94677.78;;;30.49;36.88
71107;BME280;58763;47.982;11.516;2023-08-20T09:01:40;94689.34;;;30.51;34.80
71107;BME280;58763;47.982;11.516;2023-08-20T09:04:06;94686.97;;;30.57;35.53
71107;BME280;58763;47.982;11.516;2023-08-20T09:06:52;94684.94;;;30.64;35.73
71107;BME280;58763;47.982;11.516;2023-08-20T09:09:18;94686.56;;;30.69;36.88
71107;BME280;58763;47.982;11.516;2023-08-20T09:11:44;94687.75;;;30.61;36.45
71107;BME280;58763;47.982;11.516;2023-08-20T09:14:30;94684.94;;;30.71;36.71
71107;BME280;58763;47.982;11.516;2023-08-20T09:16:58;94695.69;;;30.76;35.47
71107;BME280;58763;47.982;11.516;2023-08-20T09:19:24;94692.91;;;30.69;35.78
71107;BME280;58763;47.982;11.516;2023-08-20T09:21:49;94691.69;;;30.85;35.03
71107;BME280;58763;47.982;11.516;2023-08-20T09:24:26;94684.91;;;30.96;34.95
71107;BME280;58763;47.982;11.516;2023-08-20T09:26:57;94684.91;;;30.96;32.43
71107;BME280;58763;47.982;11.516;2023-08-20T09:29:23;94686.47;;;31.04;32.00
71107;BME280;58763;47.982;11.516;2023-08-20T09:31:48;94692.09;;;30.97;33.23
71107;BME280;58763;47.982;11.516;2023-08-20T09:34:14;94684.47;;;31.12;33.12
71107;BME280;58763;47.982;11.516;2023-08-20T09:36:39;94688.81;;;31.27;32.60
71107;BME280;58763;47.982;11.516;2023-08-20T09:39:05;94691.97;;;31.36;32.41
71107;BME280;58763;47.982;11.516;2023-08-20T09:41:30;94693.13;;;31.42;32.53
71107;BME280;58763;47.982;11.516;2023-08-20T09:43:57;94689.53;;;31.52;31.90
71107;BME280;58763;47.982;11.516;2023-08-20T09:46:27;94687.81;;;31.76;31.41
71107;BME280;58763;47.982;11.516;2023-08-20T09:48:56;94694.13;;;31.87;31.50
71107;BME280;58763;47.982;11.516;2023-08-20T09:51:27;94703.72;;;31.96;30.45
71107;BME280;58763;47.982;11.516;2023-08-20T09:54:05;94692.84;;;32.09;30.32
71107;BME280;58763;47.982;11.516;2023-08-20T09:56:38;94697.16;;;32.17;30.71
71107;BME280;58763;47.982;11.516;2023-08-20T09:59:04;94701.91;;;32.27;30.91
71107;BME280;58763;47.982;11.516;2023-08-20T10:01:30;94692.66;;;32.30;29.32
71107;BME280;58763;47.982;11.516;2023-08-20T10:03:55;94688.66;;;32.31;30.09
71107;BME280;58763;47.982;11.516;2023-08-20T10:06:23;94699.75;;;32.42;30.46
71107;BME280;58763;47.982;11.516;2023-08-20T10:08:50;94689.78;;;32.41;29.40
71107;BME280;58763;47.982;11.516;2023-08-20T10:11:15;94696.13;;;32.52;28.36
71107;BME280;58763;47.982;11.516;2023-08-20T10:13:42;94699.19;;;32.68;28.59
71107;BME280;58763;47.982;11.516;2023-08-20T10:16:07;94690.66;;;32.82;27.91
71107;BME280;58763;47.982;11.516;2023-08-20T10:18:34;94692.56;;;32.92;27.05
71107;BME280;58763;47.982;11.516;2023-08-20T10:21:01;94696.47;;;32.98;27.23
71107;BME280;58763;47.982;11.516;2023-08-20T10:23:26;94697.72;;;32.97;26.85
71107;BME280;58763;47.982;11.516;2023-08-20T10:25:52;94701.97;;;33.12;27.90
71107;BME280;58763;47.982;11.516;2023-08-20T10:28:23;94692.94;;;33.31;28.28
71107;BME280;58763;47.982;11.516;2023-08-20T10:31:05;94705.13;;;33.52;27.52
71107;BME280;58763;47.982;11.516;2023-08-20T10:33:39;94695.78;;;33.65;27.28
71107;BME280;58763;47.982;11.516;2023-08-20T10:36:18;94697.44;;;33.89;26.21
71107;BME280;58763;47.982;11.516;2023-08-20T10:38:48;94694.59;;;33.93;26.14
71107;BME280;58763;47.982;11.516;2023-08-20T10:41:15;94697.31;;;34.00;27.33
71107;BME280;58763;47.982;11.516;2023-08-20T10:43:49;94702.59;;;33.94;26.47
71107;BME280;58763;47.982;11.516;2023-08-20T10:46:16;94704.84;;;34.06;27.43
71107;BME280;58763;47.982;11.516;2023-08-20T10:48:49;94702.94;;;34.27;26.97
71107;BME280;58763;47.982;11.516;2023-08-20T10:51:17;94698.34;;;34.13;27.15
71107;BME280;58763;47.982;11.516;2023-08-20T10:53:48;94699.75;;;33.98;25.51
71107;BME280;58763;47.982;11.516;2023-08-20T10:56:15;94700.41;;;33.79;27.11
71107;BME280;58763;47.982;11.516;2023-08-20T10:58:45;94704.56;;;33.97;26.66
71107;BME280;58763;47.982;11.516;2023-08-20T11:01:22;94701.88;;;34.17;27.88
71107;BME280;58763;47.982;11.516;2023-08-20T11:03:49;94703.53;;;34.41;27.08
71107;BME280;58763;47.982;11.516;2023-08-20T11:06:15;94693.78;;;34.49;26.39
71107;BME280;58763;47.982;11.516;2023-08-20T11:08:41;94695.97;;;34.61;25.55
71107;BME280;58763;47.982;11.516;2023-08-20T11:11:08;94694.09;;;34.78;25.69
71107;BME280;58763;47.982;11.516;2023-08-20T11:13:34;94687.16;;;34.86;25.76
71107;BME280;58763;47.982;11.516;2023-08-20T11:16:01;94685.19;;;34.83;25.60
71107;BME280;58763;47.982;11.516;2023-08-20T11:18:27;94684.94;;;34.97;24.72
71107;BME280;58763;47.982;11.516;2023-08-20T11:20:54;94689.47;;;34.91;23.99
71107;BME280;58763;47.982;11.516;2023-08-20T11:23:20;94690.91;;;34.99;24.62
71107;BME280;58763;47.982;11.516;2023-08-20T11:25:45;94690.41;;;35.08;24.26
71107;BME280;58763;47.982;11.516;2023-08-20T11:28:11;94679.88;;;35.12;25.04
71107;BME280;58763;47.982;11.516;2023-08-20T11:30:36;94683.56;;;35.28;24.29
71107;BME280;58763;47.982;11.516;2023-08-20T11:33:01;94691.66;;;35.46;25.22
71107;BME280;58763;47.982;11.516;2023-08-20T11:35:27;94678.97;;;35.58;25.24
71107;BME280;58763;47.982;11.516;2023-08-20T11:37:53;94684.53;;;35.61;25.10
71107;BME280;58763;47.982;11.516;2023-08-20T11:40:22;94680.44;;;35.66;24.89
71107;BME280;58763;47.982;11.516;2023-08-20T11:42:48;94683.81;;;35.57;24.49
71107;BME280;58763;47.982;11.516;2023-08-20T11:45:14;94686.75;;;35.70;24.29
71107;BME280;58763;47.982;11.516;2023-08-20T11:47:40;94674.16;;;35.58;24.26
71107;BME280;58763;47.982;11.516;2023-08-20T11:50:07;94675.13;;;35.48;23.07
71107;BME280;58763;47.982;11.516;2023-08-20T11:52:33;94668.66;;;35.51;24.29
71107;BME280;58763;47.982;11.516;2023-08-20T11:54:59;94667.06;;;35.70;24.47
71107;BME280;58763;47.982;11.516;2023-08-20T11:57:25;94666.06;;;35.80;24.59
71107;BME280;58763;47.982;11.516;2023-08-20T11:59:51;94664.94;;;35.93;24.65
71107;BME280;58763;47.982;11.516;2023-08-20T12:02:24;94660.72;;;35.66;23.48
71107;BME280;58763;47.982;11.516;2023-08-20T12:04:50;94654.94;;;35.73;24.42
71107;BME280;58763;47.982;11.516;2023-08-20T12:07:16;94662.25;;;35.70;22.88
71107;BME280;58763;47.982;11.516;2023-08-20T12:09:41;94666.63;;;35.71;23.49
71107;BME280;58763;47.982;11.516;2023-08-20T12:12:07;94662.81;;;35.62;22.18
71107;BME280;58763;47.982;11.516;2023-08-20T12:14:34;94665.75;;;35.74;23.48
71107;BME280;58763;47.982;11.516;2023-08-20T12:17:00;94665.09;;;35.86;23.89
71107;BME280;58763;47.982;11.516;2023-08-20T12:19:26;94658.88;;;35.95;22.87
71107;BME280;58763;47.982;11.516;2023-08-20T12:21:51;94653.09;;;36.02;23.05
71107;BME280;58763;47.982;11.516;2023-08-20T12:24:17;94665.09;;;35.86;23.75
71107;BME280;58763;47.982;11.516;2023-08-20T12:26:44;94658.22;;;35.87;23.69
71107;BME280;58763;47.982;11.516;2023-08-20T12:29:10;94659.53;;;36.02;23.53
71107;BME280;58763;47.982;11.516;2023-08-20T12:31:36;94645.47;;;36.19;22.98
71107;BME280;58763;47.982;11.516;2023-08-20T12:34:01;94647.84;;;36.20;23.08
71107;BME280;58763;47.982;11.516;2023-08-20T12:36:28;94650.91;;;36.10;23.22
71107;BME280;58763;47.982;11.516;2023-08-20T12:38:54;94645.31;;;36.26;23.72
71107;BME280;58763;47.982;11.516;2023-08-20T12:41:20;94646.47;;;36.28;22.80
71107;BME280;58763;47.982;11.516;2023-08-20T12:43:45;94646.09;;;36.26;22.47
71107;BME280;58763;47.982;11.516;2023-08-20T12:46:11;94646.56;;;36.41;23.66
71107;BME280;58763;47.982;11.516;2023-08-20T12:48:37;94641.66;;;36.61;22.19